.
Local / Fort Wayne - NE Ind.

U N D E R   C O N S T R U C T I O N

Local Weather
Fort Wayne – NE Indiana

Northern Indiana (IWX) Radar

Latest IWX NEXRAD
Base Reflectivity



Latest IWX NEXRAD
Base Velocity

Indiana-Ohio Visible Satellite

For infrared and water vapor imagery, see Great Lakes - Midwest.

Current Conditions

Recent report from the Fort Wayne International Airport

Jul 23, 2018 - 06:54 AM EDT / 2018.07.23 1054 UTC


The skies are partly cloudy. The temperature is 62.1 F (16.7 C) and the dew point is 61.0 F (16.1 C), giving a relative humidity of 96%. The barometric pressure is 29.89 in. Hg (1012 hPa). The wind is from the WNW (290 degrees) at 5 MPH (4 KT), and the visibility is 10 mile(s).

KFWA 231054Z 29004KT 10SM SCT050 SCT110 17/16 A2989 RMK AO2 SLP119 T01670161

Local Weather — Contents

Local Weather — Links

CoCoRaHS
IN-AL-39
A2 Web Hosting
Creative Commons License
GoDaddy
Look for:

loaded 2018-07-23 07:51:31 • last modified 2017-02-11 13:27:36
Privacy PolicyDisclaimer
• wx.awcolley.com is powered by PmWiki v.2002016 •
• all content (unless otherwise noted) © 2018 A W Colley